Mengibar, Spain
Current Conditions -  °F | °C
As of 11:00 PM on Wednesday 28 Jan 2015 (Local Time) from LEGR Reporting Station
Clear Clear  
Wind Chill: 40°   Ceiling: Unl
Heat Index: 45°   Visibility: 6mi
Dew Point: 36°   Wind: 9mph
Humidity: 71%   Direction: 220°SW
Pressure: 30.21"   Gusts: NA
Location:  37.97°N, 3.81°W
Report Text: LEGR 282200Z 22008KT CAVOK 07/02 Q1023
Loading
Personal Weather Stations






























Interactive Weather Map New forecast layout! Learn more

10-Day Weather Forecast

Advertisements
Track Severe Weather on mobile